Time;durP1;ratioP1;P1;durP2;ratioP2;P2;SDS_P1;SDS_P2;PMS_P1;PMS_P2;Temp;Humidity;BMP_temperature;BMP_pressure;BME280_temperature;BME280_humidity;BME280_pressure;Samples;Min_cycle;Max_cycle;Signal;HPM_P1;HPM_P2
2021/09/03 00:02:11;;;;;;;5.50;4.97;;;15.70;99.90;;;;;;5008856;28;20706;-79
2021/09/03 00:04:37;;;;;;;5.60;5.10;;;15.70;99.90;;;;;;5012975;28;20258;-78
2021/09/03 00:07:03;;;;;;;5.53;5.03;;;15.60;99.90;;;;;;5016161;28;20247;-78
2021/09/03 00:09:29;;;;;;;6.23;5.13;;;15.70;99.90;;;;;;5015695;28;20284;-80
2021/09/03 00:11:54;;;;;;;5.67;5.07;;;15.60;99.90;;;;;;5016264;28;20181;-78
2021/09/03 00:14:20;;;;;;;5.70;5.20;;;15.60;99.90;;;;;;5015451;28;20171;-78
2021/09/03 00:16:46;;;;;;;5.40;4.90;;;15.60;99.90;;;;;;5016038;28;20183;-78
2021/09/03 00:19:11;;;;;;;6.73;4.90;;;15.50;99.90;;;;;;5013577;28;20231;-78
2021/09/03 00:21:37;;;;;;;5.23;4.83;;;15.50;99.90;;;;;;5014954;28;20282;-78
2021/09/03 00:24:03;;;;;;;5.63;5.13;;;15.50;99.90;;;;;;5016010;28;20171;-78
2021/09/03 00:26:28;;;;;;;5.43;4.93;;;15.50;99.90;;;;;;5015914;28;20233;-78
2021/09/03 00:28:54;;;;;;;7.30;5.17;;;15.50;99.90;;;;;;5014211;28;20198;-78
2021/09/03 00:31:20;;;;;;;6.20;5.30;;;15.40;99.90;;;;;;5015686;28;20172;-78
2021/09/03 00:33:45;;;;;;;5.30;4.80;;;15.40;99.90;;;;;;5015222;28;20268;-78
2021/09/03 00:36:11;;;;;;;6.23;5.63;;;15.40;99.90;;;;;;5015509;28;20175;-78
2021/09/03 00:38:36;;;;;;;6.23;5.63;;;15.30;99.90;;;;;;5015217;28;20189;-78
2021/09/03 00:41:02;;;;;;;6.23;5.63;;;15.30;99.90;;;;;;5014381;28;20171;-78
2021/09/03 00:43:29;;;;;;;5.73;5.10;;;15.30;99.90;;;;;;5015235;28;20645;-78
2021/09/03 00:45:55;;;;;;;6.03;5.53;;;15.20;99.90;;;;;;5015327;28;20171;-78
2021/09/03 00:48:21;;;;;;;5.67;5.17;;;15.20;99.90;;;;;;5015460;28;20191;-78
2021/09/03 00:50:47;;;;;;;5.87;5.10;;;15.20;99.90;;;;;;5015551;28;20179;-78
2021/09/03 00:53:13;;;;;;;5.77;5.27;;;15.30;99.90;;;;;;5013989;28;20175;-78
2021/09/03 00:55:39;;;;;;;6.27;5.67;;;15.30;99.90;;;;;;5015546;28;20261;-78
2021/09/03 00:58:05;;;;;;;5.93;5.40;;;15.30;99.90;;;;;;5013659;28;20294;-79
2021/09/03 01:00:30;;;;;;;10.63;5.77;;;15.30;99.90;;;;;;5013584;28;20174;-78
2021/09/03 01:02:56;;;;;;;6.00;5.40;;;15.20;99.90;;;;;;5013585;28;20665;-78
2021/09/03 01:05:23;;;;;;;5.73;5.23;;;15.20;99.90;;;;;;5015380;28;20187;-78
2021/09/03 01:07:50;;;;;;;5.83;5.33;;;15.20;99.90;;;;;;5015201;28;20245;-78
2021/09/03 01:10:20;;;;;;;5.80;5.30;;;15.10;99.90;;;;;;5014719;28;20195;-77
2021/09/03 01:12:48;;;;;;;6.63;5.93;;;15.10;99.90;;;;;;5014942;28;20175;-78
2021/09/03 01:15:15;;;;;;;5.90;5.30;;;15.00;99.90;;;;;;5015075;28;20720;-78
2021/09/03 01:17:41;;;;;;;6.10;5.50;;;15.10;99.90;;;;;;5014436;28;20563;-78
2021/09/03 01:20:09;;;;;;;6.53;5.93;;;15.00;99.90;;;;;;5014064;28;20179;-79
2021/09/03 01:22:34;;;;;;;5.97;5.47;;;14.90;99.90;;;;;;5017728;28;20233;-80
2021/09/03 01:25:15;;;;;;;6.03;5.43;;;14.90;99.90;;;;;;5017906;28;20175;-79
2021/09/03 01:27:41;;;;;;;5.93;5.43;;;14.80;99.90;;;;;;5017971;28;20194;-79
2021/09/03 01:30:12;;;;;;;5.83;5.33;;;14.80;99.90;;;;;;5016535;28;20179;-79
2021/09/03 01:32:38;;;;;;;6.57;5.97;;;14.80;99.90;;;;;;5017949;28;20261;-79
2021/09/03 01:35:05;;;;;;;5.77;5.23;;;14.80;99.90;;;;;;5016906;28;20213;-79
2021/09/03 01:37:30;;;;;;;6.07;5.57;;;14.70;99.90;;;;;;5016625;28;20205;-79
2021/09/03 01:39:56;;;;;;;5.73;5.23;;;14.70;99.90;;;;;;5018787;28;20195;-79
2021/09/03 01:42:22;;;;;;;6.00;5.50;;;14.60;99.90;;;;;;5018522;28;20178;-79
2021/09/03 01:44:47;;;;;;;6.40;5.80;;;14.60;99.90;;;;;;5016875;28;20175;-79
2021/09/03 01:47:13;;;;;;;6.00;5.40;;;14.60;99.90;;;;;;5017151;28;20179;-79
2021/09/03 01:49:38;;;;;;;6.63;5.93;;;14.60;99.90;;;;;;5017338;28;20197;-79
2021/09/03 01:52:04;;;;;;;6.47;5.87;;;14.60;99.90;;;;;;5017535;28;20649;-79
2021/09/03 01:54:30;;;;;;;6.80;6.20;;;14.50;99.90;;;;;;5017429;28;20175;-80
2021/09/03 01:56:56;;;;;;;7.00;6.17;;;14.50;99.90;;;;;;5017904;28;20175;-79
2021/09/03 01:59:21;;;;;;;6.83;6.00;;;14.50;99.90;;;;;;5015914;28;20203;-79
2021/09/03 02:01:47;;;;;;;6.33;5.73;;;14.40;99.90;;;;;;5017394;28;20172;-79
2021/09/03 02:04:13;;;;;;;6.57;5.47;;;14.40;99.90;;;;;;5018068;28;20175;-79
2021/09/03 02:06:38;;;;;;;6.33;5.63;;;14.40;99.90;;;;;;5017780;28;20179;-79
2021/09/03 02:09:04;;;;;;;6.23;5.70;;;14.40;99.90;;;;;;5017156;28;20632;-79
2021/09/03 02:11:31;;;;;;;6.50;5.73;;;14.40;99.90;;;;;;5014537;28;20191;-79
2021/09/03 02:13:56;;;;;;;6.73;6.13;;;14.30;99.90;;;;;;5011699;28;20197;-79
2021/09/03 02:16:22;;;;;;;6.43;5.63;;;14.30;99.90;;;;;;5012791;28;20206;-80
2021/09/03 02:18:48;;;;;;;5.27;4.77;;;14.20;99.90;;;;;;5014487;28;20207;-79
2021/09/03 02:21:14;;;;;;;5.70;5.20;;;14.20;99.90;;;;;;5014871;28;20183;-78
2021/09/03 02:23:39;;;;;;;6.27;5.67;;;14.00;99.90;;;;;;5015587;28;20171;-79
2021/09/03 02:26:05;;;;;;;5.73;5.23;;;14.00;99.90;;;;;;5016640;28;20182;-78
2021/09/03 02:28:31;;;;;;;6.20;5.60;;;13.90;99.90;;;;;;5016263;28;20195;-79
2021/09/03 02:30:56;;;;;;;11.03;5.43;;;13.90;99.90;;;;;;5016254;28;20237;-79
2021/09/03 02:33:22;;;;;;;6.13;5.63;;;13.90;99.90;;;;;;5016322;28;20175;-79
2021/09/03 02:35:47;;;;;;;6.93;5.50;;;13.80;99.90;;;;;;5016800;28;20194;-79
2021/09/03 02:38:13;;;;;;;5.80;5.30;;;13.80;99.90;;;;;;5014800;28;20226;-79
2021/09/03 02:40:39;;;;;;;5.40;4.90;;;13.80;99.90;;;;;;5011278;28;20198;-79
2021/09/03 02:43:05;;;;;;;7.63;5.87;;;13.80;99.90;;;;;;5015770;28;20226;-78
2021/09/03 02:45:31;;;;;;;5.73;5.13;;;13.80;99.90;;;;;;5016660;28;20210;-79
2021/09/03 02:47:57;;;;;;;6.93;5.30;;;13.70;99.90;;;;;;5016069;28;20214;-78
2021/09/03 02:50:22;;;;;;;7.57;5.60;;;13.70;99.90;;;;;;5028469;28;20176;-79
2021/09/03 02:52:49;;;;;;;7.23;5.73;;;13.60;99.90;;;;;;5017235;28;20183;-78
2021/09/03 02:55:15;;;;;;;6.83;5.73;;;13.50;99.90;;;;;;5016856;28;20229;-79
2021/09/03 02:57:41;;;;;;;6.07;5.57;;;13.60;99.90;;;;;;5016917;28;20210;-79
2021/09/03 03:00:08;;;;;;;7.00;6.37;;;13.60;99.90;;;;;;5013608;28;20187;-78
2021/09/03 03:02:35;;;;;;;7.73;6.17;;;13.60;99.90;;;;;;5004155;28;20176;-78
2021/09/03 03:05:01;;;;;;;6.57;5.97;;;13.60;99.90;;;;;;5012383;28;20185;-78
2021/09/03 03:07:26;;;;;;;6.90;6.30;;;13.60;99.90;;;;;;5014942;28;20183;-78
2021/09/03 03:09:52;;;;;;;6.90;6.30;;;13.60;99.90;;;;;;5004108;28;20191;-78
2021/09/03 03:12:20;;;;;;;8.40;6.23;;;13.60;99.90;;;;;;5012155;28;20226;-78
2021/09/03 03:14:45;;;;;;;6.90;6.20;;;13.60;99.90;;;;;;5015626;28;20202;-79
2021/09/03 03:17:11;;;;;;;6.80;6.27;;;13.60;99.90;;;;;;5015271;28;20668;-78
2021/09/03 03:19:37;;;;;;;6.57;5.97;;;13.60;99.90;;;;;;5013369;28;20234;-79
2021/09/03 03:22:03;;;;;;;7.37;6.57;;;13.50;99.90;;;;;;5015278;28;20202;-78
2021/09/03 03:24:29;;;;;;;6.47;5.93;;;13.50;99.90;;;;;;5009058;28;20176;-79
2021/09/03 03:26:55;;;;;;;7.37;6.23;;;13.50;99.90;;;;;;5009668;28;20229;-78
2021/09/03 03:29:22;;;;;;;6.73;6.13;;;13.50;99.90;;;;;;5017348;28;20203;-78
2021/09/03 03:31:48;;;;;;;6.77;6.27;;;13.50;99.90;;;;;;5017001;28;20182;-78
2021/09/03 03:34:13;;;;;;;8.00;6.57;;;13.50;99.90;;;;;;5016999;28;20179;-78
2021/09/03 03:36:39;;;;;;;6.57;6.00;;;13.40;99.90;;;;;;5015824;28;20190;-78
2021/09/03 03:39:06;;;;;;;7.50;6.80;;;13.50;99.90;;;;;;5015652;28;20215;-78
2021/09/03 03:41:32;;;;;;;6.90;6.30;;;13.40;99.90;;;;;;5016715;28;20205;-78
2021/09/03 03:43:57;;;;;;;6.80;6.20;;;13.40;99.90;;;;;;5021498;28;20175;-79
2021/09/03 03:46:23;;;;;;;7.50;6.80;;;13.40;99.90;;;;;;5024072;28;20621;-79
2021/09/03 03:48:49;;;;;;;8.27;6.70;;;13.40;99.90;;;;;;5021435;28;20206;-79
2021/09/03 03:51:15;;;;;;;7.27;6.67;;;13.30;99.90;;;;;;5020243;28;20221;-78
2021/09/03 03:53:41;;;;;;;7.67;5.73;;;13.30;99.90;;;;;;5019199;28;20229;-78
2021/09/03 03:56:07;;;;;;;7.43;6.73;;;13.30;99.90;;;;;;5021479;28;20186;-78
2021/09/03 03:58:32;;;;;;;8.00;7.20;;;13.30;99.90;;;;;;5021097;28;20257;-79
2021/09/03 04:00:58;;;;;;;7.50;6.80;;;13.30;99.90;;;;;;5018098;28;20307;-77
2021/09/03 04:03:24;;;;;;;9.63;7.13;;;13.20;99.90;;;;;;5019413;28;20178;-79
2021/09/03 04:05:49;;;;;;;7.67;7.00;;;13.20;99.90;;;;;;5015170;28;20686;-78
2021/09/03 04:08:15;;;;;;;6.57;5.97;;;13.20;99.90;;;;;;5011099;28;20851;-78
2021/09/03 04:10:41;;;;;;;11.03;6.73;;;13.20;99.90;;;;;;5019126;28;20179;-79
2021/09/03 04:13:06;;;;;;;7.13;6.47;;;13.20;99.90;;;;;;5019341;28;20553;-78
2021/09/03 04:15:32;;;;;;;7.23;6.53;;;13.10;99.90;;;;;;5018575;28;20257;-78
2021/09/03 04:17:58;;;;;;;7.90;6.90;;;13.10;99.90;;;;;;5019464;28;20732;-79
2021/09/03 04:20:23;;;;;;;7.33;6.63;;;13.10;99.90;;;;;;5018525;28;20194;-79
2021/09/03 04:22:49;;;;;;;7.73;6.80;;;13.10;99.90;;;;;;5021777;28;20175;-79
2021/09/03 04:25:15;;;;;;;7.87;6.60;;;13.00;99.90;;;;;;5021302;28;20326;-79
2021/09/03 04:27:41;;;;;;;7.77;6.30;;;13.00;99.90;;;;;;5021237;28;20195;-77
2021/09/03 04:30:09;;;;;;;6.50;5.77;;;13.00;99.90;;;;;;5021640;28;20261;-79
2021/09/03 04:32:35;;;;;;;7.70;6.70;;;13.00;99.90;;;;;;5021625;28;20201;-78
2021/09/03 04:35:00;;;;;;;7.37;6.77;;;12.80;99.90;;;;;;5022590;28;20179;-78
2021/09/03 04:37:26;;;;;;;10.10;6.47;;;12.80;99.90;;;;;;5022273;28;20182;-78
2021/09/03 04:39:53;;;;;;;6.80;6.20;;;12.80;99.90;;;;;;5036543;28;20229;-79
2021/09/03 04:42:18;;;;;;;6.53;5.93;;;12.80;99.90;;;;;;5021242;28;20544;-79
2021/09/03 04:44:44;;;;;;;6.90;6.20;;;12.80;99.90;;;;;;5019982;28;20177;-78
2021/09/03 04:47:10;;;;;;;7.27;6.57;;;12.80;99.90;;;;;;5020263;28;20254;-79
2021/09/03 04:49:35;;;;;;;8.00;7.30;;;12.70;99.90;;;;;;5020289;28;20333;-79
2021/09/03 04:52:01;;;;;;;7.73;6.73;;;12.80;99.90;;;;;;5019231;28;20272;-79
2021/09/03 04:54:27;;;;;;;8.47;7.67;;;12.80;99.90;;;;;;5020966;28;20693;-79
2021/09/03 04:56:52;;;;;;;8.10;7.30;;;12.80;99.90;;;;;;5021095;28;20237;-79
2021/09/03 04:59:18;;;;;;;7.70;7.00;;;12.80;99.90;;;;;;5019074;28;20221;-79
2021/09/03 05:01:44;;;;;;;8.13;7.10;;;12.80;99.90;;;;;;5019630;28;20542;-80
2021/09/03 05:04:09;;;;;;;7.93;7.10;;;12.80;99.90;;;;;;5020169;28;20182;-79
2021/09/03 05:06:35;;;;;;;10.33;7.80;;;12.80;99.90;;;;;;5020600;28;20183;-80
2021/09/03 05:09:01;;;;;;;7.70;7.00;;;12.80;99.90;;;;;;5019462;28;20569;-79
2021/09/03 05:11:26;;;;;;;8.07;7.27;;;12.90;99.90;;;;;;5017638;28;20234;-78
2021/09/03 05:13:52;;;;;;;8.70;7.50;;;12.90;99.90;;;;;;5018527;28;20225;-79
2021/09/03 05:16:17;;;;;;;10.10;7.27;;;12.90;99.90;;;;;;5015492;28;20181;-80
2021/09/03 05:18:43;;;;;;;8.33;7.53;;;12.90;99.90;;;;;;5011080;28;20202;-80
2021/09/03 05:21:09;;;;;;;8.03;7.23;;;12.90;99.90;;;;;;5014045;28;20194;-80
2021/09/03 05:23:35;;;;;;;9.07;7.57;;;12.90;99.90;;;;;;5018276;28;20181;-80
2021/09/03 05:26:01;;;;;;;7.83;7.13;;;12.90;99.90;;;;;;5019830;28;20171;-79
2021/09/03 05:28:29;;;;;;;7.93;7.13;;;12.90;99.90;;;;;;5019103;28;20594;-80
2021/09/03 05:30:56;;;;;;;8.00;7.20;;;12.90;99.90;;;;;;5019460;28;20638;-79
2021/09/03 05:33:21;;;;;;;8.00;7.20;;;12.90;99.90;;;;;;5032380;28;20176;-79
2021/09/03 05:35:48;;;;;;;8.57;7.77;;;13.00;99.90;;;;;;5021107;28;20186;-79
2021/09/03 05:38:14;;;;;;;8.03;7.23;;;12.90;99.90;;;;;;5017938;28;20211;-79
2021/09/03 05:40:40;;;;;;;9.37;7.33;;;13.00;99.90;;;;;;5019935;28;20539;-80
2021/09/03 05:43:05;;;;;;;8.80;7.90;;;13.00;99.90;;;;;;5022226;28;20649;-81
2021/09/03 05:45:32;;;;;;;8.10;7.30;;;13.00;99.90;;;;;;5022275;28;20182;-80
2021/09/03 05:48:01;;;;;;;7.67;6.97;;;13.00;99.90;;;;;;5019437;28;21042;-80
2021/09/03 05:50:27;;;;;;;9.27;7.90;;;13.00;99.90;;;;;;5022339;28;20581;-80
2021/09/03 05:52:53;;;;;;;11.70;8.13;;;13.00;99.90;;;;;;5021862;28;20174;-80
2021/09/03 05:55:19;;;;;;;8.60;7.80;;;13.10;99.90;;;;;;5021679;28;20554;-80
2021/09/03 05:57:51;;;;;;;8.70;7.90;;;13.10;99.90;;;;;;5036900;28;20224;-78
2021/09/03 06:03:20;;;;;;;9.10;7.87;;;13.20;99.90;;;;;;5649442;22;20234;-83
2021/09/03 06:05:46;;;;;;;8.50;7.70;;;13.20;99.90;;;;;;5032642;28;20254;-81
2021/09/03 06:08:11;;;;;;;7.83;7.13;;;13.20;99.90;;;;;;5038687;28;20190;-81
2021/09/03 06:10:37;;;;;;;9.40;7.50;;;13.30;99.90;;;;;;5035477;28;20242;-81
2021/09/03 06:13:03;;;;;;;8.53;7.73;;;13.40;99.90;;;;;;5023579;28;20203;-80
2021/09/03 06:15:28;;;;;;;9.23;8.30;;;13.40;99.90;;;;;;5021598;28;20641;-82
2021/09/03 06:17:54;;;;;;;8.37;7.60;;;13.50;99.90;;;;;;5021262;28;20194;-82
2021/09/03 06:20:19;;;;;;;8.97;7.27;;;13.50;99.90;;;;;;5021166;28;20179;-83
2021/09/03 06:22:45;;;;;;;9.63;7.97;;;13.60;99.90;;;;;;5022935;28;20561;-83
2021/09/03 06:25:11;;;;;;;8.53;7.73;;;13.60;99.90;;;;;;5021943;28;20182;-82
2021/09/03 06:27:38;;;;;;;8.17;7.47;;;13.60;99.90;;;;;;5022893;28;20179;-83
2021/09/03 06:30:04;;;;;;;8.17;7.37;;;13.70;99.90;;;;;;5022397;28;20198;-82
2021/09/03 06:32:29;;;;;;;8.83;8.00;;;13.80;99.90;;;;;;5024862;28;20326;-82
2021/09/03 06:35:00;;;;;;;8.70;7.90;;;13.80;99.90;;;;;;5013753;28;20649;-83
2021/09/03 06:37:28;;;;;;;8.17;7.43;;;13.90;99.90;;;;;;5024321;28;20183;-82
2021/09/03 06:39:54;;;;;;;11.23;9.20;;;14.00;99.90;;;;;;5009904;28;20278;-84
2021/09/03 06:42:20;;;;;;;9.77;8.77;;;14.00;99.90;;;;;;5017584;28;20192;-83
2021/09/03 06:44:46;;;;;;;9.77;8.77;;;14.10;99.90;;;;;;5021900;28;20190;-82
2021/09/03 06:47:13;;;;;;;12.97;9.77;;;14.20;99.90;;;;;;5022431;28;20167;-82
2021/09/03 06:49:39;;;;;;;10.40;8.80;;;14.30;99.90;;;;;;5027602;28;20174;-82
2021/09/03 06:52:06;;;;;;;10.37;9.33;;;14.30;99.90;;;;;;5022855;28;20209;-82
2021/09/03 06:54:34;;;;;;;21.23;11.40;;;14.40;99.90;;;;;;5023982;28;20171;-81
2021/09/03 06:57:00;;;;;;;9.67;8.87;;;14.40;99.90;;;;;;5027226;28;20186;-83
2021/09/03 06:59:27;;;;;;;11.10;10.00;;;14.50;99.90;;;;;;5017840;28;20191;-82
2021/09/03 07:01:54;;;;;;;10.10;9.20;;;14.50;99.90;;;;;;5014193;28;20182;-82
2021/09/03 07:04:19;;;;;;;11.97;10.50;;;14.60;99.90;;;;;;5003379;28;20220;-82
2021/09/03 07:06:45;;;;;;;11.07;9.97;;;14.60;99.90;;;;;;5023594;28;20187;-82
2021/09/03 07:09:11;;;;;;;10.73;9.77;;;14.70;99.90;;;;;;5021955;28;20254;-82
2021/09/03 07:11:37;;;;;;;11.53;10.43;;;14.70;99.90;;;;;;5020406;28;20175;-81
2021/09/03 07:14:04;;;;;;;11.10;9.83;;;14.70;99.90;;;;;;5025548;28;20181;-79
2021/09/03 07:16:30;;;;;;;11.40;10.20;;;14.80;99.90;;;;;;5034795;28;20563;-81
2021/09/03 07:18:56;;;;;;;10.83;9.83;;;14.80;99.90;;;;;;5049116;28;20194;-80
2021/09/03 07:21:23;;;;;;;11.40;10.27;;;14.80;99.90;;;;;;5036545;28;20190;-80
2021/09/03 07:23:49;;;;;;;11.30;10.20;;;14.80;99.90;;;;;;5026895;28;20187;-82
2021/09/03 07:26:15;;;;;;;12.27;11.07;;;14.90;99.90;;;;;;5010788;28;20172;-82
2021/09/03 07:28:41;;;;;;;12.23;11.00;;;15.00;99.90;;;;;;5019411;28;20186;-81
2021/09/03 07:31:07;;;;;;;11.97;10.77;;;15.10;99.90;;;;;;5023675;28;20710;-82
2021/09/03 07:33:33;;;;;;;12.87;11.23;;;15.10;99.90;;;;;;5017991;28;20242;-82
2021/09/03 07:35:58;;;;;;;12.57;11.27;;;15.10;99.90;;;;;;5022841;28;20175;-82
2021/09/03 07:38:24;;;;;;;12.67;11.33;;;15.20;99.90;;;;;;5021767;28;20258;-82
2021/09/03 07:40:50;;;;;;;13.37;12.00;;;15.20;99.90;;;;;;5022340;28;20175;-81
2021/09/03 07:43:16;;;;;;;12.70;11.40;;;15.30;99.90;;;;;;5022733;28;20213;-82
2021/09/03 07:45:42;;;;;;;13.87;11.83;;;15.30;99.90;;;;;;5025710;28;20527;-82
2021/09/03 07:48:09;;;;;;;10.80;9.80;;;15.40;99.90;;;;;;5019906;28;20178;-82
2021/09/03 07:50:35;;;;;;;12.37;11.07;;;15.50;99.90;;;;;;5025584;28;20245;-81
2021/09/03 07:53:02;;;;;;;12.63;11.37;;;15.50;99.90;;;;;;5021598;28;20202;-84
2021/09/03 07:55:28;;;;;;;12.10;10.80;;;15.60;99.90;;;;;;5016741;28;20184;-81
2021/09/03 07:57:54;;;;;;;11.53;10.33;;;15.60;99.90;;;;;;5020691;28;20175;-81
2021/09/03 08:00:20;;;;;;;12.13;10.90;;;15.70;99.90;;;;;;5021805;28;20672;-82
2021/09/03 08:02:46;;;;;;;13.40;10.93;;;15.70;99.90;;;;;;5022752;28;20187;-82
2021/09/03 08:05:12;;;;;;;12.40;11.17;;;15.80;99.90;;;;;;5021756;28;20321;-81
2021/09/03 08:07:41;;;;;;;11.03;9.93;;;15.90;99.90;;;;;;5023584;28;20176;-81
2021/09/03 08:10:12;;;;;;;12.23;10.93;;;15.90;99.90;;;;;;5020000;28;20174;-81
2021/09/03 08:12:38;;;;;;;11.83;10.63;;;16.00;99.90;;;;;;5022560;28;20704;-81
2021/09/03 08:15:05;;;;;;;9.80;8.87;;;16.10;99.90;;;;;;5022974;28;20632;-82
2021/09/03 08:17:31;;;;;;;11.03;9.67;;;16.10;99.90;;;;;;5024733;28;20187;-81
2021/09/03 08:19:57;;;;;;;10.00;9.13;;;16.10;99.90;;;;;;5024818;28;20203;-81
2021/09/03 08:22:23;;;;;;;10.60;9.50;;;16.20;99.90;;;;;;5022224;28;20232;-81
2021/09/03 08:24:48;;;;;;;10.83;9.70;;;16.20;99.90;;;;;;5022789;28;20204;-81
2021/09/03 08:27:14;;;;;;;10.40;9.30;;;16.20;99.90;;;;;;5024168;28;20184;-82
2021/09/03 08:29:40;;;;;;;10.13;9.10;;;16.30;99.90;;;;;;5022171;28;20556;-81
2021/09/03 08:32:06;;;;;;;10.03;9.10;;;16.30;99.90;;;;;;5021963;28;20248;-81
2021/09/03 08:34:32;;;;;;;10.03;9.13;;;16.40;99.90;;;;;;5022369;28;20563;-81
2021/09/03 08:36:57;;;;;;;11.43;9.33;;;16.40;99.90;;;;;;5023634;28;20209;-80
2021/09/03 08:39:23;;;;;;;10.83;9.57;;;16.40;99.90;;;;;;5034022;28;20208;-83
2021/09/03 08:41:49;;;;;;;10.53;9.53;;;16.60;99.90;;;;;;5025427;28;20205;-83
2021/09/03 08:44:15;;;;;;;13.30;10.27;;;16.70;99.90;;;;;;5016849;28;20192;-82
2021/09/03 08:46:44;;;;;;;9.90;8.93;;;16.80;99.90;;;;;;5022807;28;20178;-81
2021/09/03 08:49:10;;;;;;;10.40;9.47;;;16.80;99.90;;;;;;5024391;28;20175;-81
2021/09/03 08:51:36;;;;;;;10.77;8.47;;;16.90;99.90;;;;;;5022767;28;20202;-82
2021/09/03 08:54:02;;;;;;;10.50;9.30;;;16.90;99.90;;;;;;5032802;28;20178;-82
2021/09/03 08:56:28;;;;;;;12.00;10.67;;;17.00;99.90;;;;;;5022117;28;20709;-82
2021/09/03 08:58:54;;;;;;;11.80;10.60;;;17.10;99.90;;;;;;5022631;28;20206;-81
2021/09/03 09:01:19;;;;;;;13.57;10.00;;;17.10;99.90;;;;;;5022533;28;20183;-82
2021/09/03 09:03:47;;;;;;;13.67;11.70;;;17.20;99.90;;;;;;5021722;28;20203;-82
2021/09/03 09:06:25;;;;;;;13.17;10.57;;;17.10;99.90;;;;;;5021743;28;20661;-82
2021/09/03 09:09:06;;;;;;;11.77;10.40;;;17.20;99.90;;;;;;5022242;28;20186;-82
2021/09/03 09:11:34;;;;;;;15.13;11.43;;;17.20;99.90;;;;;;5021071;28;20182;-81
2021/09/03 09:14:07;;;;;;;14.90;11.47;;;17.20;99.90;;;;;;5024584;28;20234;-82
2021/09/03 09:16:33;;;;;;;15.87;11.93;;;17.30;99.90;;;;;;5030186;28;20277;-82
2021/09/03 09:19:03;;;;;;;21.97;11.60;;;17.40;99.90;;;;;;5017005;28;20226;-82
2021/09/03 09:21:34;;;;;;;14.50;11.27;;;17.50;99.90;;;;;;5025686;28;20194;-81
2021/09/03 09:24:02;;;;;;;14.43;11.03;;;17.60;99.90;;;;;;5030414;28;20198;-81
2021/09/03 09:26:57;;;;;;;18.90;13.27;;;17.70;99.90;;;;;;5030225;28;20171;-81
2021/09/03 09:29:35;;;;;;;22.87;14.00;;;17.80;99.90;;;;;;5026483;28;20183;-81
2021/09/03 09:32:09;;;;;;;18.73;12.70;;;17.90;99.90;;;;;;5022174;28;20199;-81
2021/09/03 09:34:37;;;;;;;21.80;14.27;;;18.00;99.90;;;;;;5029612;28;20201;-81
2021/09/03 09:37:06;;;;;;;18.40;13.83;;;18.10;99.90;;;;;;5027648;28;20179;-81
2021/09/03 09:39:53;;;;;;;21.70;14.83;;;18.20;99.90;;;;;;5024056;28;20195;-83
2021/09/03 09:42:27;;;;;;;22.37;14.57;;;18.30;99.90;;;;;;5025264;28;20264;-81
2021/09/03 09:45:14;;;;;;;15.17;11.40;;;18.50;99.90;;;;;;5020895;28;20187;-83
2021/09/03 09:48:08;;;;;;;14.00;10.43;;;18.60;99.90;;;;;;5017388;28;20178;-77
2021/09/03 09:50:37;;;;;;;12.83;9.77;;;18.70;99.90;;;;;;5041132;28;20154;-79
2021/09/03 09:53:16;;;;;;;9.83;8.93;;;18.90;99.90;;;;;;5049995;28;20233;-78
2021/09/03 09:55:55;;;;;;;11.70;9.03;;;19.00;99.90;;;;;;5047791;28;20182;-81
2021/09/03 09:58:53;;;;;;;14.80;9.30;;;19.20;99.90;;;;;;5018437;28;20199;-81
2021/09/03 10:01:33;;;;;;;14.53;10.70;;;19.20;99.90;;;;;;5026877;28;20171;-79
2021/09/03 10:04:53;;;;;;;13.17;10.23;;;19.20;99.90;;;;;;5022452;28;20190;-77
2021/09/03 10:10:54;;;;;;;9.63;8.17;;;19.50;99.90;;;;;;5022075;28;20193;-79
2021/09/03 10:14:08;;;;;;;9.57;8.50;;;19.60;99.90;;;;;;5128532;23;20229;-79
2021/09/03 10:16:35;;;;;;;9.90;8.90;;;19.70;99.90;;;;;;5047325;28;20288;-81
2021/09/03 10:19:04;;;;;;;10.07;8.20;;;19.90;99.90;;;;;;5091649;22;20614;-83
2021/09/03 10:21:33;;;;;;;10.93;9.80;;;20.00;99.90;;;;;;5029546;28;20175;-83
2021/09/03 10:24:16;;;;;;;12.13;9.17;;;20.10;99.90;;;;;;5056105;28;20633;-83
2021/09/03 10:26:45;;;;;;;9.67;8.20;;;20.20;99.90;;;;;;5058147;28;20163;-83
2021/09/03 10:29:16;;;;;;;10.83;9.00;;;20.30;99.90;;;;;;5037932;28;20706;-83
2021/09/03 10:32:04;;;;;;;9.43;8.43;;;20.40;99.90;;;;;;5043214;28;20178;-83
2021/09/03 10:34:39;;;;;;;10.20;8.53;;;20.30;99.90;;;;;;5037945;28;20245;-83
2021/09/03 10:37:15;;;;;;;10.07;7.90;;;20.50;99.90;;;;;;5050494;28;20308;-83
2021/09/03 10:39:48;;;;;;;8.20;7.07;;;20.70;99.90;;;;;;5054859;28;20214;-84
2021/09/03 10:42:48;;;;;;;9.20;6.47;;;20.70;99.90;;;;;;5045998;28;20171;-84
2021/09/03 10:45:52;;;;;;;9.47;7.73;;;21.00;99.90;;;;;;5037537;28;20217;-81
2021/09/03 10:48:26;;;;;;;8.03;7.23;;;21.00;99.90;;;;;;5012371;28;20186;-84
2021/09/03 10:50:56;;;;;;;7.57;6.90;;;21.00;99.90;;;;;;5044741;28;20556;-85
2021/09/03 10:53:26;;;;;;;8.23;7.50;;;21.20;99.90;;;;;;5040214;28;20200;-84
2021/09/03 10:56:17;;;;;;;7.47;6.83;;;21.40;99.90;;;;;;5042027;28;20177;-85
2021/09/03 10:58:48;;;;;;;9.07;8.13;;;21.50;99.90;;;;;;5038445;28;20198;-85
2021/09/03 11:01:14;;;;;;;9.57;7.57;;;21.50;99.90;;;;;;5042576;28;20167;-85
2021/09/03 11:03:43;;;;;;;8.07;6.80;;;21.50;99.90;;;;;;5059042;28;20174;-85
2021/09/03 11:06:32;;;;;;;7.63;6.93;;;21.50;99.90;;;;;;5045095;28;20197;-85
2021/09/03 11:09:00;;;;;;;7.97;7.23;;;21.50;99.90;;;;;;5038541;28;20203;-85
2021/09/03 11:11:28;;;;;;;9.97;7.30;;;21.80;99.90;;;;;;5044614;28;20228;-85
2021/09/03 11:14:03;;;;;;;7.77;7.07;;;21.90;99.90;;;;;;5056996;28;20179;-85
2021/09/03 11:16:37;;;;;;;7.83;7.07;;;22.00;99.90;;;;;;5043572;28;20174;-85
2021/09/03 11:19:20;;;;;;;7.77;7.10;;;22.10;99.90;;;;;;5043088;28;20210;-84
2021/09/03 11:21:45;;;;;;;9.77;8.77;;;22.30;99.90;;;;;;5035949;28;20175;-85
2021/09/03 11:24:18;;;;;;;7.67;6.93;;;22.40;99.90;;;;;;5032990;28;20185;-84
2021/09/03 11:26:45;;;;;;;8.10;7.27;;;22.30;99.90;;;;;;5030178;28;20179;-85
2021/09/03 11:29:20;;;;;;;7.50;6.80;;;22.60;99.90;;;;;;5042828;28;20209;-85
2021/09/03 11:31:56;;;;;;;8.63;6.50;;;22.60;99.90;;;;;;5034247;28;20237;-85
2021/09/03 11:34:40;;;;;;;7.03;6.37;;;23.20;99.90;;;;;;5039942;28;20184;-85
2021/09/03 11:37:06;;;;;;;11.60;7.60;;;22.60;99.90;;;;;;5036519;28;20249;-85
2021/09/03 11:39:33;;;;;;;8.53;7.70;;;22.70;99.90;;;;;;5036725;28;20210;-86
2021/09/03 11:41:59;;;;;;;9.90;8.23;;;22.60;99.90;;;;;;5040950;28;20178;-85
2021/09/03 11:44:26;;;;;;;11.10;9.17;;;22.60;99.90;;;;;;5044266;28;20171;-86
2021/09/03 11:46:51;;;;;;;10.23;8.77;;;22.60;99.90;;;;;;5035554;28;20221;-85
2021/09/03 11:49:23;;;;;;;7.70;6.87;;;22.80;99.90;;;;;;5037201;28;20198;-85
2021/09/03 11:52:06;;;;;;;7.57;6.70;;;23.00;99.90;;;;;;5028173;28;20182;-85
2021/09/03 11:54:32;;;;;;;6.90;6.30;;;23.30;99.90;;;;;;5065147;28;20273;-86
2021/09/03 11:56:58;;;;;;;6.93;6.30;;;23.50;99.90;;;;;;5037320;28;20217;-86
2021/09/03 11:59:24;;;;;;;7.03;6.43;;;23.40;99.90;;;;;;5035047;28;20209;-86
2021/09/03 12:02:13;;;;;;;5.60;5.20;;;23.70;99.90;;;;;;5051829;28;20174;-86
2021/09/03 12:04:41;;;;;;;5.90;5.30;;;23.70;99.90;;;;;;5037186;28;20171;-84
2021/09/03 12:07:24;;;;;;;5.77;5.27;;;24.10;99.90;;;;;;5038869;28;20190;-85
2021/09/03 12:09:58;;;;;;;6.60;6.07;;;24.20;99.90;;;;;;5038769;28;20214;-84
2021/09/03 12:12:27;;;;;;;10.70;6.67;;;24.30;99.90;;;;;;5032734;28;20162;-86
2021/09/03 12:14:55;;;;;;;13.80;8.83;;;24.20;99.90;;;;;;5032144;28;20178;-84
2021/09/03 12:17:21;;;;;;;11.20;9.97;;;24.20;99.90;;;;;;5036913;28;20675;-86
2021/09/03 12:19:46;;;;;;;10.20;9.10;;;24.10;99.90;;;;;;5036327;28;20213;-85
2021/09/03 12:22:18;;;;;;;13.40;9.93;;;24.10;99.90;;;;;;5038828;28;20170;-85
2021/09/03 12:24:49;;;;;;;16.40;10.10;;;24.00;99.90;;;;;;5032316;28;20547;-85
2021/09/03 12:27:15;;;;;;;12.53;8.80;;;24.00;99.90;;;;;;5033184;28;20675;-85
2021/09/03 12:29:43;;;;;;;11.63;8.57;;;24.20;99.90;;;;;;5027124;28;20219;-85
2021/09/03 12:32:09;;;;;;;9.17;7.00;;;24.40;99.90;;;;;;5032004;28;20679;-85
2021/09/03 12:34:35;;;;;;;8.40;7.23;;;24.50;99.90;;;;;;5030912;28;20260;-85
2021/09/03 12:37:11;;;;;;;9.73;7.77;;;24.40;99.90;;;;;;5029822;28;20186;-84
2021/09/03 12:39:40;;;;;;;7.27;6.60;;;24.40;99.90;;;;;;5033033;28;20544;-85
2021/09/03 12:42:16;;;;;;;8.03;7.00;;;24.30;99.90;;;;;;5037216;28;20213;-85
2021/09/03 12:44:42;;;;;;;8.13;7.20;;;24.20;99.90;;;;;;5032012;28;20206;-85
2021/09/03 12:47:08;;;;;;;7.77;7.00;;;24.10;99.90;;;;;;5038095;28;20557;-85
2021/09/03 12:49:36;;;;;;;7.53;6.03;;;24.10;99.90;;;;;;5032528;28;20709;-85
2021/09/03 12:52:15;;;;;;;7.07;6.17;;;24.20;99.90;;;;;;5041229;28;20171;-85
2021/09/03 12:54:40;;;;;;;6.10;5.53;;;24.40;99.90;;;;;;5040936;28;20182;-85
2021/09/03 12:57:07;;;;;;;7.60;5.50;;;24.50;99.90;;;;;;5041978;28;20622;-85